sensor_id;sensor_type;location;lat;lon;timestamp;pressure;altitude;pressure_sealevel;temperature;humidity
53522;BME280;39398;48.382;9.802;2023-05-06T00:00:54;93943.22;;;11.78;100.00
53522;BME280;39398;48.382;9.802;2023-05-06T00:05:56;93931.69;;;11.99;100.00
53522;BME280;39398;48.382;9.802;2023-05-06T00:10:59;93932.34;;;12.14;100.00
53522;BME280;39398;48.382;9.802;2023-05-06T00:16:00;93919.94;;;12.21;100.00
53522;BME280;39398;48.382;9.802;2023-05-06T00:21:02;93920.97;;;12.27;100.00
53522;BME280;39398;48.382;9.802;2023-05-06T00:26:08;93910.56;;;12.19;100.00
53522;BME280;39398;48.382;9.802;2023-05-06T00:31:13;93919.59;;;11.83;100.00
53522;BME280;39398;48.382;9.802;2023-05-06T00:36:14;93900.63;;;11.66;100.00
53522;BME280;39398;48.382;9.802;2023-05-06T00:41:17;93896.97;;;11.67;100.00
53522;BME280;39398;48.382;9.802;2023-05-06T00:46:19;93896.78;;;11.62;100.00
53522;BME280;39398;48.382;9.802;2023-05-06T00:51:25;93896.69;;;11.90;100.00
53522;BME280;39398;48.382;9.802;2023-05-06T00:56:28;93895.09;;;11.54;100.00
53522;BME280;39398;48.382;9.802;2023-05-06T01:01:30;93898.53;;;11.48;100.00
53522;BME280;39398;48.382;9.802;2023-05-06T01:06:39;93903.72;;;11.83;100.00
53522;BME280;39398;48.382;9.802;2023-05-06T01:11:48;93900.22;;;11.62;100.00
53522;BME280;39398;48.382;9.802;2023-05-06T01:16:53;93902.09;;;11.21;100.00
53522;BME280;39398;48.382;9.802;2023-05-06T01:22:00;93907.03;;;10.96;100.00
53522;BME280;39398;48.382;9.802;2023-05-06T01:27:03;93912.31;;;10.96;100.00
53522;BME280;39398;48.382;9.802;2023-05-06T01:32:33;93931.63;;;11.03;100.00
53522;BME280;39398;48.382;9.802;2023-05-06T01:37:43;93929.84;;;11.10;100.00
53522;BME280;39398;48.382;9.802;2023-05-06T01:42:47;93928.22;;;11.09;100.00
53522;BME280;39398;48.382;9.802;2023-05-06T01:47:49;93918.69;;;11.08;100.00
53522;BME280;39398;48.382;9.802;2023-05-06T01:52:58;93909.50;;;11.04;100.00
53522;BME280;39398;48.382;9.802;2023-05-06T01:58:01;93918.69;;;11.08;100.00
53522;BME280;39398;48.382;9.802;2023-05-06T02:03:05;93919.88;;;11.05;100.00
53522;BME280;39398;48.382;9.802;2023-05-06T02:08:06;93914.28;;;11.22;100.00
53522;BME280;39398;48.382;9.802;2023-05-06T02:13:09;93907.50;;;11.12;100.00
53522;BME280;39398;48.382;9.802;2023-05-06T02:18:11;93919.53;;;11.15;100.00
53522;BME280;39398;48.382;9.802;2023-05-06T02:23:13;93918.34;;;11.24;100.00
53522;BME280;39398;48.382;9.802;2023-05-06T02:28:16;93910.88;;;11.34;100.00
53522;BME280;39398;48.382;9.802;2023-05-06T02:33:17;93908.25;;;11.34;100.00
53522;BME280;39398;48.382;9.802;2023-05-06T02:38:20;93903.22;;;11.46;100.00
53522;BME280;39398;48.382;9.802;2023-05-06T02:43:23;93898.34;;;11.50;100.00
53522;BME280;39398;48.382;9.802;2023-05-06T02:48:27;93896.09;;;11.47;100.00
53522;BME280;39398;48.382;9.802;2023-05-06T02:53:29;93906.78;;;11.32;100.00
53522;BME280;39398;48.382;9.802;2023-05-06T02:58:34;93894.69;;;11.09;100.00
53522;BME280;39398;48.382;9.802;2023-05-06T03:03:36;93885.13;;;11.02;100.00
53522;BME280;39398;48.382;9.802;2023-05-06T03:08:37;93887.94;;;11.00;100.00
53522;BME280;39398;48.382;9.802;2023-05-06T03:13:47;93892.38;;;10.93;100.00
53522;BME280;39398;48.382;9.802;2023-05-06T03:18:49;93885.25;;;10.93;100.00
53522;BME280;39398;48.382;9.802;2023-05-06T03:23:50;93885.84;;;10.89;100.00
53522;BME280;39398;48.382;9.802;2023-05-06T03:28:53;93887.56;;;11.10;100.00
53522;BME280;39398;48.382;9.802;2023-05-06T03:33:55;93884.03;;;11.31;100.00
53522;BME280;39398;48.382;9.802;2023-05-06T03:38:59;93885.59;;;11.18;100.00
53522;BME280;39398;48.382;9.802;2023-05-06T03:44:02;93876.25;;;11.23;100.00
53522;BME280;39398;48.382;9.802;2023-05-06T03:49:03;93877.91;;;11.24;100.00
53522;BME280;39398;48.382;9.802;2023-05-06T03:54:05;93877.38;;;11.00;100.00
53522;BME280;39398;48.382;9.802;2023-05-06T03:59:08;93889.19;;;11.04;100.00
53522;BME280;39398;48.382;9.802;2023-05-06T04:04:10;93888.41;;;11.10;100.00
53522;BME280;39398;48.382;9.802;2023-05-06T04:09:11;93894.34;;;11.19;100.00
53522;BME280;39398;48.382;9.802;2023-05-06T04:14:17;93887.56;;;11.10;100.00
53522;BME280;39398;48.382;9.802;2023-05-06T04:19:21;93885.00;;;10.82;100.00
53522;BME280;39398;48.382;9.802;2023-05-06T04:24:37;93901.03;;;10.80;100.00
53522;BME280;39398;48.382;9.802;2023-05-06T04:29:40;93890.03;;;10.48;100.00
53522;BME280;39398;48.382;9.802;2023-05-06T04:34:41;93901.78;;;10.74;100.00
53522;BME280;39398;48.382;9.802;2023-05-06T04:39:47;93915.50;;;10.91;100.00
53522;BME280;39398;48.382;9.802;2023-05-06T04:44:50;93909.81;;;11.22;100.00
53522;BME280;39398;48.382;9.802;2023-05-06T04:49:54;93898.53;;;11.48;100.00
53522;BME280;39398;48.382;9.802;2023-05-06T04:54:56;93902.06;;;11.69;100.00
53522;BME280;39398;48.382;9.802;2023-05-06T04:59:59;93907.50;;;11.54;100.00
53522;BME280;39398;48.382;9.802;2023-05-06T05:05:01;93917.91;;;11.62;100.00
53522;BME280;39398;48.382;9.802;2023-05-06T05:10:03;93916.25;;;11.54;100.00
53522;BME280;39398;48.382;9.802;2023-05-06T05:15:07;93914.03;;;11.64;100.00
53522;BME280;39398;48.382;9.802;2023-05-06T05:20:10;93914.72;;;11.80;100.00
53522;BME280;39398;48.382;9.802;2023-05-06T05:25:11;93915.84;;;12.12;100.00
53522;BME280;39398;48.382;9.802;2023-05-06T05:30:17;93919.47;;;11.98;100.00
53522;BME280;39398;48.382;9.802;2023-05-06T05:35:19;93919.25;;;11.93;100.00
53522;BME280;39398;48.382;9.802;2023-05-06T05:40:22;93919.97;;;11.73;100.00
53522;BME280;39398;48.382;9.802;2023-05-06T05:45:26;93920.53;;;12.17;100.00
53522;BME280;39398;48.382;9.802;2023-05-06T05:50:28;93928.66;;;12.22;100.00
53522;BME280;39398;48.382;9.802;2023-05-06T05:55:30;93927.69;;;12.29;100.00
53522;BME280;39398;48.382;9.802;2023-05-06T06:00:33;93924.84;;;12.71;100.00
53522;BME280;39398;48.382;9.802;2023-05-06T06:05:34;93923.22;;;12.83;100.00
53522;BME280;39398;48.382;9.802;2023-05-06T06:10:36;93934.19;;;13.13;100.00
53522;BME280;39398;48.382;9.802;2023-05-06T06:15:39;93930.28;;;13.36;100.00
53522;BME280;39398;48.382;9.802;2023-05-06T06:20:43;93930.53;;;13.28;100.00
53522;BME280;39398;48.382;9.802;2023-05-06T06:25:45;93941.97;;;13.08;100.00
53522;BME280;39398;48.382;9.802;2023-05-06T06:30:48;93941.13;;;13.08;100.00
53522;BME280;39398;48.382;9.802;2023-05-06T06:35:49;93931.50;;;13.40;100.00
53522;BME280;39398;48.382;9.802;2023-05-06T06:40:51;93929.25;;;13.50;100.00
53522;BME280;39398;48.382;9.802;2023-05-06T06:45:54;93939.28;;;13.86;100.00
53522;BME280;39398;48.382;9.802;2023-05-06T06:50:55;93938.16;;;14.46;100.00
53522;BME280;39398;48.382;9.802;2023-05-06T06:55:57;93936.75;;;15.00;100.00
53522;BME280;39398;48.382;9.802;2023-05-06T07:01:00;93928.53;;;15.01;100.00
53522;BME280;39398;48.382;9.802;2023-05-06T07:06:02;93928.59;;;14.38;100.00
53522;BME280;39398;48.382;9.802;2023-05-06T07:11:04;93940.69;;;15.16;100.00
53522;BME280;39398;48.382;9.802;2023-05-06T07:16:11;93944.94;;;14.98;100.00
53522;BME280;39398;48.382;9.802;2023-05-06T07:21:13;93949.53;;;14.59;100.00
53522;BME280;39398;48.382;9.802;2023-05-06T07:26:15;93949.16;;;15.06;100.00
53522;BME280;39398;48.382;9.802;2023-05-06T07:31:17;93962.16;;;14.64;100.00
53522;BME280;39398;48.382;9.802;2023-05-06T07:36:21;93949.97;;;14.81;100.00
53522;BME280;39398;48.382;9.802;2023-05-06T07:41:25;93959.59;;;14.51;100.00
53522;BME280;39398;48.382;9.802;2023-05-06T07:46:31;93963.50;;;14.41;100.00
53522;BME280;39398;48.382;9.802;2023-05-06T07:51:33;93974.09;;;14.10;100.00
53522;BME280;39398;48.382;9.802;2023-05-06T07:56:37;93966.66;;;14.25;100.00
53522;BME280;39398;48.382;9.802;2023-05-06T08:01:40;93973.16;;;14.36;100.00
53522;BME280;39398;48.382;9.802;2023-05-06T08:06:42;93977.97;;;15.09;100.00
53522;BME280;39398;48.382;9.802;2023-05-06T08:11:51;93976.88;;;15.17;100.00
53522;BME280;39398;48.382;9.802;2023-05-06T08:16:57;93979.66;;;15.47;100.00
53522;BME280;39398;48.382;9.802;2023-05-06T08:22:00;93977.03;;;15.22;100.00
53522;BME280;39398;48.382;9.802;2023-05-06T08:27:01;93984.59;;;15.00;100.00
53522;BME280;39398;48.382;9.802;2023-05-06T08:32:04;93990.09;;;15.48;100.00
53522;BME280;39398;48.382;9.802;2023-05-06T08:37:06;93991.06;;;15.54;100.00
53522;BME280;39398;48.382;9.802;2023-05-06T08:42:09;93987.25;;;15.87;100.00
53522;BME280;39398;48.382;9.802;2023-05-06T08:47:17;93980.16;;;15.99;100.00
53522;BME280;39398;48.382;9.802;2023-05-06T08:52:19;93980.50;;;16.51;100.00
53522;BME280;39398;48.382;9.802;2023-05-06T08:57:22;93977.19;;;16.07;100.00
53522;BME280;39398;48.382;9.802;2023-05-06T09:02:27;93976.16;;;16.38;100.00
53522;BME280;39398;48.382;9.802;2023-05-06T09:07:29;93987.13;;;16.30;100.00
53522;BME280;39398;48.382;9.802;2023-05-06T09:12:30;93990.72;;;16.54;100.00
53522;BME280;39398;48.382;9.802;2023-05-06T09:17:33;93998.81;;;15.99;100.00
53522;BME280;39398;48.382;9.802;2023-05-06T09:22:42;93989.28;;;15.66;100.00
53522;BME280;39398;48.382;9.802;2023-05-06T09:27:45;93981.75;;;16.18;100.00
53522;BME280;39398;48.382;9.802;2023-05-06T09:33:04;93986.03;;;15.21;100.00
53522;BME280;39398;48.382;9.802;2023-05-06T09:38:06;93979.53;;;15.42;100.00
53522;BME280;39398;48.382;9.802;2023-05-06T09:43:08;93977.06;;;15.84;100.00
53522;BME280;39398;48.382;9.802;2023-05-06T09:48:13;93971.28;;;15.87;100.00
53522;BME280;39398;48.382;9.802;2023-05-06T09:53:16;93980.78;;;15.57;100.00
53522;BME280;39398;48.382;9.802;2023-05-06T09:58:19;93964.38;;;16.16;100.00
53522;BME280;39398;48.382;9.802;2023-05-06T10:03:22;93955.75;;;17.28;100.00
53522;BME280;39398;48.382;9.802;2023-05-06T10:08:26;93951.69;;;17.84;100.00
53522;BME280;39398;48.382;9.802;2023-05-06T10:13:28;93947.72;;;18.84;100.00
53522;BME280;39398;48.382;9.802;2023-05-06T10:18:33;93945.59;;;19.20;100.00
53522;BME280;39398;48.382;9.802;2023-05-06T10:23:42;93939.59;;;18.79;100.00
53522;BME280;39398;48.382;9.802;2023-05-06T10:28:50;93927.13;;;18.85;100.00
53522;BME280;39398;48.382;9.802;2023-05-06T10:33:56;93923.66;;;19.18;100.00
53522;BME280;39398;48.382;9.802;2023-05-06T10:39:00;93919.91;;;18.40;100.00
53522;BME280;39398;48.382;9.802;2023-05-06T10:44:03;93914.50;;;17.71;100.00
53522;BME280;39398;48.382;9.802;2023-05-06T10:49:16;93916.44;;;17.99;100.00
53522;BME280;39398;48.382;9.802;2023-05-06T10:54:22;93920.22;;;18.43;100.00
53522;BME280;39398;48.382;9.802;2023-05-06T10:59:26;93916.53;;;18.16;100.00
53522;BME280;39398;48.382;9.802;2023-05-06T11:04:32;93916.78;;;18.02;100.00
53522;BME280;39398;48.382;9.802;2023-05-06T11:09:52;93903.44;;;16.80;100.00
53522;BME280;39398;48.382;9.802;2023-05-06T11:15:23;93899.59;;;17.46;100.00
53522;BME280;39398;48.382;9.802;2023-05-06T11:20:26;93893.75;;;17.84;100.00
53522;BME280;39398;48.382;9.802;2023-05-06T11:25:41;93895.63;;;18.12;100.00
53522;BME280;39398;48.382;9.802;2023-05-06T11:30:53;93894.72;;;17.43;100.00
53522;BME280;39398;48.382;9.802;2023-05-06T11:35:58;93903.78;;;17.07;100.00
53522;BME280;39398;48.382;9.802;2023-05-06T11:40:59;93900.53;;;16.93;100.00
53522;BME280;39398;48.382;9.802;2023-05-06T11:46:16;93905.91;;;17.92;100.00
53522;BME280;39398;48.382;9.802;2023-05-06T11:51:23;93903.97;;;17.64;100.00
53522;BME280;39398;48.382;9.802;2023-05-06T11:56:26;93893.78;;;18.58;100.00
53522;BME280;39398;48.382;9.802;2023-05-06T12:01:32;93887.69;;;18.46;100.00
53522;BME280;39398;48.382;9.802;2023-05-06T12:06:35;93879.72;;;18.34;100.00
53522;BME280;39398;48.382;9.802;2023-05-06T12:11:38;93882.28;;;18.92;100.00
53522;BME280;39398;48.382;9.802;2023-05-06T12:16:42;93880.09;;;18.72;100.00
53522;BME280;39398;48.382;9.802;2023-05-06T12:21:45;93890.03;;;19.27;100.00
53522;BME280;39398;48.382;9.802;2023-05-06T12:32:57;93884.56;;;18.38;100.00
53522;BME280;39398;48.382;9.802;2023-05-06T12:38:11;93881.91;;;18.38;100.00
53522;BME280;39398;48.382;9.802;2023-05-06T12:43:13;93880.22;;;18.03;100.00
53522;BME280;39398;48.382;9.802;2023-05-06T12:48:15;93873.78;;;18.61;100.00
53522;BME280;39398;48.382;9.802;2023-05-06T12:53:32;93879.81;;;18.40;100.00
53522;BME280;39398;48.382;9.802;2023-05-06T12:58:37;93876.25;;;18.05;100.00
53522;BME280;39398;48.382;9.802;2023-05-06T13:03:39;93871.81;;;18.56;100.00
53522;BME280;39398;48.382;9.802;2023-05-06T13:08:47;93866.50;;;18.90;89.76
53522;BME280;39398;48.382;9.802;2023-05-06T13:13:48;93860.75;;;18.81;87.09
53522;BME280;39398;48.382;9.802;2023-05-06T13:18:50;93859.38;;;18.96;98.73
53522;BME280;39398;48.382;9.802;2023-05-06T13:23:53;93846.41;;;19.26;93.94
53522;BME280;39398;48.382;9.802;2023-05-06T13:28:55;93847.25;;;19.49;91.38
53522;BME280;39398;48.382;9.802;2023-05-06T13:33:56;93844.28;;;20.11;100.00
53522;BME280;39398;48.382;9.802;2023-05-06T13:39:00;93839.19;;;19.27;100.00
53522;BME280;39398;48.382;9.802;2023-05-06T13:44:03;93831.00;;;19.34;95.78
53522;BME280;39398;48.382;9.802;2023-05-06T13:49:04;93827.59;;;19.60;91.29
53522;BME280;39398;48.382;9.802;2023-05-06T13:54:07;93824.59;;;18.96;99.84
53522;BME280;39398;48.382;9.802;2023-05-06T13:59:09;93824.09;;;18.99;93.38
53522;BME280;39398;48.382;9.802;2023-05-06T14:04:13;93818.63;;;19.11;99.35
53522;BME280;39398;48.382;9.802;2023-05-06T14:09:18;93820.09;;;19.18;92.51
53522;BME280;39398;48.382;9.802;2023-05-06T14:14:19;93816.06;;;19.38;92.08
53522;BME280;39398;48.382;9.802;2023-05-06T14:19:21;93813.75;;;19.24;99.15
53522;BME280;39398;48.382;9.802;2023-05-06T14:24:24;93803.72;;;19.37;89.58
53522;BME280;39398;48.382;9.802;2023-05-06T14:29:26;93811.69;;;19.10;91.85
53522;BME280;39398;48.382;9.802;2023-05-06T14:34:27;93806.25;;;19.43;100.00
53522;BME280;39398;48.382;9.802;2023-05-06T14:39:33;93807.34;;;19.25;92.47
53522;BME280;39398;48.382;9.802;2023-05-06T14:44:37;93801.09;;;19.20;100.00
53522;BME280;39398;48.382;9.802;2023-05-06T14:49:38;93798.06;;;19.55;98.24
53522;BME280;39398;48.382;9.802;2023-05-06T14:54:44;93797.97;;;19.67;91.26
53522;BME280;39398;48.382;9.802;2023-05-06T14:59:46;93793.31;;;18.96;100.00
53522;BME280;39398;48.382;9.802;2023-05-06T15:04:48;93792.31;;;18.69;100.00
53522;BME280;39398;48.382;9.802;2023-05-06T15:09:51;93793.16;;;18.52;95.72
53522;BME280;39398;48.382;9.802;2023-05-06T15:14:52;93790.72;;;18.85;94.90
53522;BME280;39398;48.382;9.802;2023-05-06T15:19:54;93794.09;;;18.63;96.03
53522;BME280;39398;48.382;9.802;2023-05-06T15:25:07;93792.41;;;18.40;100.00
53522;BME280;39398;48.382;9.802;2023-05-06T15:30:17;93794.75;;;18.20;100.00
53522;BME280;39398;48.382;9.802;2023-05-06T15:35:19;93797.53;;;19.14;100.00
53522;BME280;39398;48.382;9.802;2023-05-06T15:46:26;93796.00;;;18.79;97.18
53522;BME280;39398;48.382;9.802;2023-05-06T15:51:29;93792.63;;;19.06;94.77
53522;BME280;39398;48.382;9.802;2023-05-06T15:56:30;93779.97;;;19.62;87.20
53522;BME280;39398;48.382;9.802;2023-05-06T16:01:44;93789.94;;;19.67;87.24
53522;BME280;39398;48.382;9.802;2023-05-06T16:07:06;93789.38;;;19.65;82.59
53522;BME280;39398;48.382;9.802;2023-05-06T16:12:08;93792.56;;;20.11;82.86
53522;BME280;39398;48.382;9.802;2023-05-06T16:17:11;93779.44;;;20.14;83.79
53522;BME280;39398;48.382;9.802;2023-05-06T16:22:15;93777.22;;;20.06;84.67
53522;BME280;39398;48.382;9.802;2023-05-06T16:27:19;93780.91;;;19.73;100.00
53522;BME280;39398;48.382;9.802;2023-05-06T16:32:29;93784.66;;;19.11;100.00
53522;BME280;39398;48.382;9.802;2023-05-06T16:37:31;93779.22;;;18.50;100.00
53522;BME280;39398;48.382;9.802;2023-05-06T16:42:36;93770.63;;;18.82;95.71
53522;BME280;39398;48.382;9.802;2023-05-06T16:47:42;93778.94;;;19.02;95.59
53522;BME280;39398;48.382;9.802;2023-05-06T16:52:44;93785.81;;;18.76;100.00
53522;BME280;39398;48.382;9.802;2023-05-06T16:57:48;93782.66;;;18.79;100.00
53522;BME280;39398;48.382;9.802;2023-05-06T17:02:53;93775.06;;;18.59;100.00
53522;BME280;39398;48.382;9.802;2023-05-06T17:07:58;93780.50;;;18.65;99.33
53522;BME280;39398;48.382;9.802;2023-05-06T17:13:00;93781.16;;;18.55;98.12
53522;BME280;39398;48.382;9.802;2023-05-06T17:18:03;93776.94;;;18.59;95.41
53522;BME280;39398;48.382;9.802;2023-05-06T17:23:04;93767.22;;;18.70;97.85
53522;BME280;39398;48.382;9.802;2023-05-06T17:28:10;93764.38;;;18.59;98.23
53522;BME280;39398;48.382;9.802;2023-05-06T17:33:19;93759.75;;;18.72;99.41
53522;BME280;39398;48.382;9.802;2023-05-06T17:38:21;93761.97;;;18.58;99.24
53522;BME280;39398;48.382;9.802;2023-05-06T17:43:25;93757.69;;;18.40;100.00
53522;BME280;39398;48.382;9.802;2023-05-06T17:48:28;93750.31;;;18.30;98.11
53522;BME280;39398;48.382;9.802;2023-05-06T17:53:29;93759.44;;;18.34;100.00
53522;BME280;39398;48.382;9.802;2023-05-06T17:58:31;93748.03;;;18.05;100.00
53522;BME280;39398;48.382;9.802;2023-05-06T18:03:37;93748.19;;;17.99;100.00
53522;BME280;39398;48.382;9.802;2023-05-06T18:08:39;93747.38;;;17.81;100.00
53522;BME280;39398;48.382;9.802;2023-05-06T18:13:43;93744.38;;;17.78;100.00
53522;BME280;39398;48.382;9.802;2023-05-06T18:18:46;93747.91;;;17.55;100.00
53522;BME280;39398;48.382;9.802;2023-05-06T18:23:48;93752.44;;;17.54;100.00
53522;BME280;39398;48.382;9.802;2023-05-06T18:29:06;93764.31;;;17.47;100.00
53522;BME280;39398;48.382;9.802;2023-05-06T18:34:09;93764.91;;;17.37;100.00
53522;BME280;39398;48.382;9.802;2023-05-06T18:39:13;93771.19;;;17.31;100.00
53522;BME280;39398;48.382;9.802;2023-05-06T18:44:14;93775.63;;;17.25;100.00
53522;BME280;39398;48.382;9.802;2023-05-06T18:49:17;93787.94;;;17.26;100.00
53522;BME280;39398;48.382;9.802;2023-05-06T18:54:19;93791.22;;;17.05;100.00
53522;BME280;39398;48.382;9.802;2023-05-06T18:59:22;93805.22;;;17.12;100.00
53522;BME280;39398;48.382;9.802;2023-05-06T19:04:38;93805.09;;;17.07;100.00
53522;BME280;39398;48.382;9.802;2023-05-06T19:09:43;93806.41;;;17.04;100.00
53522;BME280;39398;48.382;9.802;2023-05-06T19:20:50;93805.00;;;16.78;100.00
53522;BME280;39398;48.382;9.802;2023-05-06T19:25:53;93812.66;;;16.63;100.00
53522;BME280;39398;48.382;9.802;2023-05-06T19:30:54;93814.16;;;16.47;100.00
53522;BME280;39398;48.382;9.802;2023-05-06T19:36:00;93811.06;;;16.20;100.00
53522;BME280;39398;48.382;9.802;2023-05-06T19:41:01;93818.94;;;16.15;100.00
53522;BME280;39398;48.382;9.802;2023-05-06T19:46:06;93819.06;;;15.59;100.00
53522;BME280;39398;48.382;9.802;2023-05-06T19:51:09;93823.56;;;15.77;100.00
53522;BME280;39398;48.382;9.802;2023-05-06T19:56:11;93821.63;;;15.66;100.00
53522;BME280;39398;48.382;9.802;2023-05-06T20:01:13;93825.00;;;15.25;100.00
53522;BME280;39398;48.382;9.802;2023-05-06T20:06:16;93814.72;;;15.47;100.00
53522;BME280;39398;48.382;9.802;2023-05-06T20:11:18;93816.56;;;15.46;100.00
53522;BME280;39398;48.382;9.802;2023-05-06T20:16:19;93815.94;;;15.32;100.00
53522;BME280;39398;48.382;9.802;2023-05-06T20:21:22;93811.41;;;14.96;100.00
53522;BME280;39398;48.382;9.802;2023-05-06T20:26:24;93820.88;;;14.49;100.00
53522;BME280;39398;48.382;9.802;2023-05-06T20:31:26;93825.03;;;14.38;100.00
53522;BME280;39398;48.382;9.802;2023-05-06T20:36:31;93820.88;;;14.42;100.00
53522;BME280;39398;48.382;9.802;2023-05-06T20:41:33;93816.38;;;14.74;100.00
53522;BME280;39398;48.382;9.802;2023-05-06T20:46:38;93816.81;;;14.71;100.00
53522;BME280;39398;48.382;9.802;2023-05-06T20:51:43;93820.16;;;15.03;100.00
53522;BME280;39398;48.382;9.802;2023-05-06T20:56:45;93809.16;;;15.00;100.00
53522;BME280;39398;48.382;9.802;2023-05-06T21:01:46;93807.56;;;14.92;100.00
53522;BME280;39398;48.382;9.802;2023-05-06T21:06:49;93810.53;;;14.84;100.00
53522;BME280;39398;48.382;9.802;2023-05-06T21:11:51;93808.00;;;14.71;100.00
53522;BME280;39398;48.382;9.802;2023-05-06T21:16:55;93817.81;;;14.52;100.00
53522;BME280;39398;48.382;9.802;2023-05-06T21:22:01;93810.78;;;14.01;100.00
53522;BME280;39398;48.382;9.802;2023-05-06T21:27:13;93824.53;;;14.48;100.00
53522;BME280;39398;48.382;9.802;2023-05-06T21:32:17;93823.72;;;14.72;100.00
53522;BME280;39398;48.382;9.802;2023-05-06T21:37:23;93819.75;;;14.81;100.00
53522;BME280;39398;48.382;9.802;2023-05-06T21:42:26;93821.19;;;14.84;100.00
53522;BME280;39398;48.382;9.802;2023-05-06T21:47:28;93809.94;;;14.82;100.00
53522;BME280;39398;48.382;9.802;2023-05-06T21:52:33;93807.03;;;14.83;100.00
53522;BME280;39398;48.382;9.802;2023-05-06T21:57:35;93804.09;;;14.73;100.00
53522;BME280;39398;48.382;9.802;2023-05-06T22:02:36;93803.19;;;14.36;100.00
53522;BME280;39398;48.382;9.802;2023-05-06T22:07:39;93799.50;;;14.37;100.00
53522;BME280;39398;48.382;9.802;2023-05-06T22:12:41;93802.53;;;14.40;100.00
53522;BME280;39398;48.382;9.802;2023-05-06T22:17:43;93796.13;;;14.48;100.00
53522;BME280;39398;48.382;9.802;2023-05-06T22:22:46;93799.59;;;14.55;100.00
53522;BME280;39398;48.382;9.802;2023-05-06T22:27:47;93806.75;;;14.73;100.00
53522;BME280;39398;48.382;9.802;2023-05-06T22:32:49;93801.38;;;14.80;100.00
53522;BME280;39398;48.382;9.802;2023-05-06T22:37:54;93793.75;;;14.83;100.00
53522;BME280;39398;48.382;9.802;2023-05-06T22:42:56;93788.81;;;14.69;100.00
53522;BME280;39398;48.382;9.802;2023-05-06T22:47:58;93792.06;;;14.71;100.00
53522;BME280;39398;48.382;9.802;2023-05-06T22:53:01;93790.38;;;14.76;100.00
53522;BME280;39398;48.382;9.802;2023-05-06T22:58:15;93778.94;;;14.76;100.00
53522;BME280;39398;48.382;9.802;2023-05-06T23:03:17;93778.19;;;14.69;100.00
53522;BME280;39398;48.382;9.802;2023-05-06T23:08:20;93780.03;;;14.68;100.00
53522;BME280;39398;48.382;9.802;2023-05-06T23:13:24;93786.44;;;14.60;100.00
53522;BME280;39398;48.382;9.802;2023-05-06T23:18:26;93777.16;;;14.70;100.00
53522;BME280;39398;48.382;9.802;2023-05-06T23:23:29;93778.03;;;14.63;100.00
53522;BME280;39398;48.382;9.802;2023-05-06T23:28:30;93773.75;;;14.62;100.00
53522;BME280;39398;48.382;9.802;2023-05-06T23:33:32;93771.41;;;14.73;100.00
53522;BME280;39398;48.382;9.802;2023-05-06T23:38:43;93775.66;;;14.55;100.00
53522;BME280;39398;48.382;9.802;2023-05-06T23:43:44;93767.03;;;14.60;100.00
53522;BME280;39398;48.382;9.802;2023-05-06T23:48:46;93768.44;;;14.62;100.00
53522;BME280;39398;48.382;9.802;2023-05-06T23:53:52;93769.50;;;14.61;100.00
53522;BME280;39398;48.382;9.802;2023-05-06T23:58:54;93776.41;;;14.62;100.00
